sensor_id;sensor_type;location;lat;lon;timestamp;temperature;humidity
64718;DHT22;62506;46.070;14.492;2022-12-29T00:00:08;21.20;57.30
64718;DHT22;62506;46.070;14.492;2022-12-29T00:02:33;21.20;57.30
64718;DHT22;62506;46.070;14.492;2022-12-29T00:04:59;21.20;57.30
64718;DHT22;62506;46.070;14.492;2022-12-29T00:07:24;21.20;57.40
64718;DHT22;62506;46.070;14.492;2022-12-29T00:09:50;21.20;57.70
64718;DHT22;62506;46.070;14.492;2022-12-29T00:12:15;21.20;57.40
64718;DHT22;62506;46.070;14.492;2022-12-29T00:14:41;21.20;57.60
64718;DHT22;62506;46.070;14.492;2022-12-29T00:17:25;21.20;57.30
64718;DHT22;62506;46.070;14.492;2022-12-29T00:19:50;21.20;57.30
64718;DHT22;62506;46.070;14.492;2022-12-29T00:22:34;21.20;57.80
64718;DHT22;62506;46.070;14.492;2022-12-29T00:25:19;21.20;57.50
64718;DHT22;62506;46.070;14.492;2022-12-29T00:28:04;21.20;57.60
64718;DHT22;62506;46.070;14.492;2022-12-29T00:30:48;21.20;57.80
64718;DHT22;62506;46.070;14.492;2022-12-29T00:33:33;21.20;57.50
64718;DHT22;62506;46.070;14.492;2022-12-29T00:38:45;21.20;57.50
64718;DHT22;62506;46.070;14.492;2022-12-29T00:41:30;21.20;57.50
64718;DHT22;62506;46.070;14.492;2022-12-29T00:44:14;21.20;57.50
64718;DHT22;62506;46.070;14.492;2022-12-29T00:46:41;21.20;57.30
64718;DHT22;62506;46.070;14.492;2022-12-29T00:49:08;21.20;57.30
64718;DHT22;62506;46.070;14.492;2022-12-29T00:51:53;21.20;57.10
64718;DHT22;62506;46.070;14.492;2022-12-29T00:54:19;21.20;57.20
64718;DHT22;62506;46.070;14.492;2022-12-29T00:56:48;21.20;57.00
64718;DHT22;62506;46.070;14.492;2022-12-29T00:59:13;21.20;56.90
64718;DHT22;62506;46.070;14.492;2022-12-29T01:01:39;21.20;56.80
64718;DHT22;62506;46.070;14.492;2022-12-29T01:04:05;21.20;56.90
64718;DHT22;62506;46.070;14.492;2022-12-29T01:06:31;21.20;56.90
64718;DHT22;62506;46.070;14.492;2022-12-29T01:08:57;21.20;57.30
64718;DHT22;62506;46.070;14.492;2022-12-29T01:11:41;21.20;57.00
64718;DHT22;62506;46.070;14.492;2022-12-29T01:14:07;21.20;56.80
64718;DHT22;62506;46.070;14.492;2022-12-29T01:16:32;21.20;56.80
64718;DHT22;62506;46.070;14.492;2022-12-29T01:18:58;21.20;56.90
64718;DHT22;62506;46.070;14.492;2022-12-29T01:21:23;21.20;56.80
64718;DHT22;62506;46.070;14.492;2022-12-29T01:23:49;21.20;56.90
64718;DHT22;62506;46.070;14.492;2022-12-29T01:26:15;21.20;56.90
64718;DHT22;62506;46.070;14.492;2022-12-29T01:28:41;21.20;56.80
64718;DHT22;62506;46.070;14.492;2022-12-29T01:31:08;21.20;56.80
64718;DHT22;62506;46.070;14.492;2022-12-29T01:33:33;21.20;56.80
64718;DHT22;62506;46.070;14.492;2022-12-29T01:36:02;21.20;56.90
64718;DHT22;62506;46.070;14.492;2022-12-29T01:38:28;21.20;56.80
64718;DHT22;62506;46.070;14.492;2022-12-29T01:40:54;21.20;56.80
64718;DHT22;62506;46.070;14.492;2022-12-29T01:43:19;21.20;56.80
64718;DHT22;62506;46.070;14.492;2022-12-29T01:45:47;21.20;56.90
64718;DHT22;62506;46.070;14.492;2022-12-29T01:48:13;21.20;56.90
64718;DHT22;62506;46.070;14.492;2022-12-29T01:50:39;21.20;56.90
64718;DHT22;62506;46.070;14.492;2022-12-29T01:53:07;21.20;57.00
64718;DHT22;62506;46.070;14.492;2022-12-29T01:55:38;21.20;56.90
64718;DHT22;62506;46.070;14.492;2022-12-29T01:58:05;21.20;56.80
64718;DHT22;62506;46.070;14.492;2022-12-29T02:00:31;21.20;57.20
64718;DHT22;62506;46.070;14.492;2022-12-29T02:02:57;21.20;57.60
64718;DHT22;62506;46.070;14.492;2022-12-29T02:05:25;21.20;56.90
64718;DHT22;62506;46.070;14.492;2022-12-29T02:07:52;21.20;56.90
64718;DHT22;62506;46.070;14.492;2022-12-29T02:10:21;21.20;57.00
64718;DHT22;62506;46.070;14.492;2022-12-29T02:12:48;21.20;57.00
64718;DHT22;62506;46.070;14.492;2022-12-29T02:15:14;21.20;57.00
64718;DHT22;62506;46.070;14.492;2022-12-29T02:20:27;21.20;57.00
64718;DHT22;62506;46.070;14.492;2022-12-29T02:28:33;21.20;57.00
64718;DHT22;62506;46.070;14.492;2022-12-29T02:33:40;21.20;57.00
64718;DHT22;62506;46.070;14.492;2022-12-29T02:36:22;21.20;57.00
64718;DHT22;62506;46.070;14.492;2022-12-29T02:46:35;21.20;57.00
64718;DHT22;62506;46.070;14.492;2022-12-29T02:54:16;21.20;57.20
64718;DHT22;62506;46.070;14.492;2022-12-29T02:57:01;21.20;57.10
64718;DHT22;62506;46.070;14.492;2022-12-29T02:59:26;21.20;57.20
64718;DHT22;62506;46.070;14.492;2022-12-29T03:07:23;21.20;57.10
64718;DHT22;62506;46.070;14.492;2022-12-29T03:09:52;21.20;57.30
64718;DHT22;62506;46.070;14.492;2022-12-29T03:12:24;21.20;57.50
64718;DHT22;62506;46.070;14.492;2022-12-29T03:15:12;21.20;57.30
64718;DHT22;62506;46.070;14.492;2022-12-29T03:17:58;21.20;57.60
64718;DHT22;62506;46.070;14.492;2022-12-29T03:20:31;21.10;57.50
64718;DHT22;62506;46.070;14.492;2022-12-29T03:22:59;21.10;57.50
64718;DHT22;62506;46.070;14.492;2022-12-29T03:25:30;21.10;57.70
64718;DHT22;62506;46.070;14.492;2022-12-29T03:27:58;21.10;57.50
64718;DHT22;62506;46.070;14.492;2022-12-29T03:30:26;21.10;57.40
64718;DHT22;62506;46.070;14.492;2022-12-29T03:32:54;21.10;57.40
64718;DHT22;62506;46.070;14.492;2022-12-29T03:35:21;21.10;57.60
64718;DHT22;62506;46.070;14.492;2022-12-29T03:38:31;21.10;57.80
64718;DHT22;62506;46.070;14.492;2022-12-29T03:40:37;21.10;57.80
64718;DHT22;62506;46.070;14.492;2022-12-29T03:43:03;21.10;57.60
64718;DHT22;62506;46.070;14.492;2022-12-29T03:45:29;21.10;57.70
64718;DHT22;62506;46.070;14.492;2022-12-29T03:47:55;21.10;57.60
64718;DHT22;62506;46.070;14.492;2022-12-29T03:50:20;21.10;57.70
64718;DHT22;62506;46.070;14.492;2022-12-29T03:52:46;21.10;57.80
64718;DHT22;62506;46.070;14.492;2022-12-29T03:55:12;21.10;57.80
64718;DHT22;62506;46.070;14.492;2022-12-29T03:57:37;21.10;57.80
64718;DHT22;62506;46.070;14.492;2022-12-29T04:00:04;21.10;58.00
64718;DHT22;62506;46.070;14.492;2022-12-29T04:02:29;21.10;57.60
64718;DHT22;62506;46.070;14.492;2022-12-29T04:04:55;21.10;57.80
64718;DHT22;62506;46.070;14.492;2022-12-29T04:07:20;21.00;57.80
64718;DHT22;62506;46.070;14.492;2022-12-29T04:09:46;21.10;57.80
64718;DHT22;62506;46.070;14.492;2022-12-29T04:12:11;21.10;58.00
64718;DHT22;62506;46.070;14.492;2022-12-29T04:14:37;21.10;58.50
64718;DHT22;62506;46.070;14.492;2022-12-29T04:17:02;21.10;58.40
64718;DHT22;62506;46.070;14.492;2022-12-29T04:19:28;21.10;58.20
64718;DHT22;62506;46.070;14.492;2022-12-29T04:21:53;21.10;58.20
64718;DHT22;62506;46.070;14.492;2022-12-29T04:24:19;21.20;58.60
64718;DHT22;62506;46.070;14.492;2022-12-29T04:26:44;21.20;59.00
64718;DHT22;62506;46.070;14.492;2022-12-29T04:29:10;21.20;58.20
64718;DHT22;62506;46.070;14.492;2022-12-29T04:31:35;21.10;58.20
64718;DHT22;62506;46.070;14.492;2022-12-29T04:34:01;21.20;58.00
64718;DHT22;62506;46.070;14.492;2022-12-29T04:36:26;21.10;57.90
64718;DHT22;62506;46.070;14.492;2022-12-29T04:38:52;21.20;58.20
64718;DHT22;62506;46.070;14.492;2022-12-29T04:41:17;21.20;58.10
64718;DHT22;62506;46.070;14.492;2022-12-29T04:43:43;21.20;57.90
64718;DHT22;62506;46.070;14.492;2022-12-29T04:46:08;21.20;57.80
64718;DHT22;62506;46.070;14.492;2022-12-29T04:48:34;21.20;57.60
64718;DHT22;62506;46.070;14.492;2022-12-29T04:50:59;21.20;57.70
64718;DHT22;62506;46.070;14.492;2022-12-29T04:53:25;21.10;57.50
64718;DHT22;62506;46.070;14.492;2022-12-29T04:55:51;21.20;57.80
64718;DHT22;62506;46.070;14.492;2022-12-29T04:58:17;21.20;57.50
64718;DHT22;62506;46.070;14.492;2022-12-29T05:00:42;21.20;57.80
64718;DHT22;62506;46.070;14.492;2022-12-29T05:03:08;21.20;57.80
64718;DHT22;62506;46.070;14.492;2022-12-29T05:05:33;21.20;58.00
64718;DHT22;62506;46.070;14.492;2022-12-29T05:07:59;21.30;57.50
64718;DHT22;62506;46.070;14.492;2022-12-29T05:10:24;21.40;57.30
64718;DHT22;62506;46.070;14.492;2022-12-29T05:12:50;21.40;57.20
64718;DHT22;62506;46.070;14.492;2022-12-29T05:15:16;21.50;57.20
64718;DHT22;62506;46.070;14.492;2022-12-29T05:17:41;21.50;57.10
64718;DHT22;62506;46.070;14.492;2022-12-29T05:20:07;21.50;57.10
64718;DHT22;62506;46.070;14.492;2022-12-29T05:22:33;21.60;57.10
64718;DHT22;62506;46.070;14.492;2022-12-29T05:24:58;21.70;57.20
64718;DHT22;62506;46.070;14.492;2022-12-29T05:27:24;21.70;57.00
64718;DHT22;62506;46.070;14.492;2022-12-29T05:29:49;21.70;57.00
64718;DHT22;62506;46.070;14.492;2022-12-29T05:32:15;21.70;56.90
64718;DHT22;62506;46.070;14.492;2022-12-29T05:34:40;21.70;56.80
64718;DHT22;62506;46.070;14.492;2022-12-29T05:37:06;21.70;56.70
64718;DHT22;62506;46.070;14.492;2022-12-29T05:39:31;21.70;56.90
64718;DHT22;62506;46.070;14.492;2022-12-29T05:41:57;21.70;56.70
64718;DHT22;62506;46.070;14.492;2022-12-29T05:44:22;21.70;56.80
64718;DHT22;62506;46.070;14.492;2022-12-29T05:46:48;21.70;56.50
64718;DHT22;62506;46.070;14.492;2022-12-29T05:49:13;21.70;56.30
64718;DHT22;62506;46.070;14.492;2022-12-29T05:51:39;21.70;56.00
64718;DHT22;62506;46.070;14.492;2022-12-29T05:54:05;21.70;56.20
64718;DHT22;62506;46.070;14.492;2022-12-29T05:56:30;21.70;55.90
64718;DHT22;62506;46.070;14.492;2022-12-29T05:58:56;21.70;55.90
64718;DHT22;62506;46.070;14.492;2022-12-29T06:01:21;21.70;56.30
64718;DHT22;62506;46.070;14.492;2022-12-29T06:03:47;21.70;55.90
64718;DHT22;62506;46.070;14.492;2022-12-29T06:06:12;21.70;55.70
64718;DHT22;62506;46.070;14.492;2022-12-29T06:08:38;21.70;55.70
64718;DHT22;62506;46.070;14.492;2022-12-29T06:11:03;21.70;56.00
64718;DHT22;62506;46.070;14.492;2022-12-29T06:13:29;21.70;55.80
64718;DHT22;62506;46.070;14.492;2022-12-29T06:15:54;21.70;56.00
64718;DHT22;62506;46.070;14.492;2022-12-29T06:18:20;21.70;55.60
64718;DHT22;62506;46.070;14.492;2022-12-29T06:20:45;21.70;55.80
64718;DHT22;62506;46.070;14.492;2022-12-29T06:23:11;21.60;56.40
64718;DHT22;62506;46.070;14.492;2022-12-29T06:25:38;21.60;55.60
64718;DHT22;62506;46.070;14.492;2022-12-29T06:28:04;21.60;55.70
64718;DHT22;62506;46.070;14.492;2022-12-29T06:30:30;21.60;55.90
64718;DHT22;62506;46.070;14.492;2022-12-29T06:32:56;21.60;55.80
64718;DHT22;62506;46.070;14.492;2022-12-29T06:35:21;21.60;55.80
64718;DHT22;62506;46.070;14.492;2022-12-29T06:37:50;21.60;55.70
64718;DHT22;62506;46.070;14.492;2022-12-29T06:40:15;21.60;55.70
64718;DHT22;62506;46.070;14.492;2022-12-29T06:42:41;21.60;55.80
64718;DHT22;62506;46.070;14.492;2022-12-29T06:45:07;21.60;55.90
64718;DHT22;62506;46.070;14.492;2022-12-29T06:47:33;21.60;55.90
64718;DHT22;62506;46.070;14.492;2022-12-29T06:49:59;21.50;55.70
64718;DHT22;62506;46.070;14.492;2022-12-29T06:52:24;21.50;55.70
64718;DHT22;62506;46.070;14.492;2022-12-29T06:54:50;21.50;55.80
64718;DHT22;62506;46.070;14.492;2022-12-29T06:57:16;21.50;55.80
64718;DHT22;62506;46.070;14.492;2022-12-29T06:59:41;21.50;56.00
64718;DHT22;62506;46.070;14.492;2022-12-29T07:02:08;21.50;57.10
64718;DHT22;62506;46.070;14.492;2022-12-29T07:04:34;21.50;56.50
64718;DHT22;62506;46.070;14.492;2022-12-29T07:06:59;21.50;56.40
64718;DHT22;62506;46.070;14.492;2022-12-29T07:09:25;21.50;56.00
64718;DHT22;62506;46.070;14.492;2022-12-29T07:11:51;21.40;56.10
64718;DHT22;62506;46.070;14.492;2022-12-29T07:14:16;21.40;56.10
64718;DHT22;62506;46.070;14.492;2022-12-29T07:16:42;21.40;56.10
64718;DHT22;62506;46.070;14.492;2022-12-29T07:19:07;21.40;56.80
64718;DHT22;62506;46.070;14.492;2022-12-29T07:21:33;21.40;56.00
64718;DHT22;62506;46.070;14.492;2022-12-29T07:23:58;21.40;56.00
64718;DHT22;62506;46.070;14.492;2022-12-29T07:26:24;21.40;56.00
64718;DHT22;62506;46.070;14.492;2022-12-29T07:28:49;21.40;56.00
64718;DHT22;62506;46.070;14.492;2022-12-29T07:31:16;21.40;55.90
64718;DHT22;62506;46.070;14.492;2022-12-29T07:33:42;21.40;56.00
64718;DHT22;62506;46.070;14.492;2022-12-29T07:36:09;21.40;56.00
64718;DHT22;62506;46.070;14.492;2022-12-29T07:38:34;21.40;56.00
64718;DHT22;62506;46.070;14.492;2022-12-29T07:41:00;21.30;55.50
64718;DHT22;62506;46.070;14.492;2022-12-29T07:43:25;21.40;55.90
64718;DHT22;62506;46.070;14.492;2022-12-29T07:45:51;21.40;55.90
64718;DHT22;62506;46.070;14.492;2022-12-29T07:48:16;21.30;55.80
64718;DHT22;62506;46.070;14.492;2022-12-29T07:50:42;21.30;55.80
64718;DHT22;62506;46.070;14.492;2022-12-29T07:53:08;21.30;56.10
64718;DHT22;62506;46.070;14.492;2022-12-29T07:55:33;21.30;56.60
64718;DHT22;62506;46.070;14.492;2022-12-29T07:57:59;21.30;55.90
64718;DHT22;62506;46.070;14.492;2022-12-29T08:00:24;21.30;56.00
64718;DHT22;62506;46.070;14.492;2022-12-29T08:02:50;21.30;56.10
64718;DHT22;62506;46.070;14.492;2022-12-29T08:05:15;21.30;56.00
64718;DHT22;62506;46.070;14.492;2022-12-29T08:07:44;21.30;56.10
64718;DHT22;62506;46.070;14.492;2022-12-29T08:10:10;21.30;56.10
64718;DHT22;62506;46.070;14.492;2022-12-29T08:12:39;21.30;56.20
64718;DHT22;62506;46.070;14.492;2022-12-29T08:15:09;21.30;56.10
64718;DHT22;62506;46.070;14.492;2022-12-29T08:17:37;21.30;56.10
64718;DHT22;62506;46.070;14.492;2022-12-29T08:20:03;21.30;56.00
64718;DHT22;62506;46.070;14.492;2022-12-29T08:22:29;21.30;55.90
64718;DHT22;62506;46.070;14.492;2022-12-29T08:24:54;21.30;55.90
64718;DHT22;62506;46.070;14.492;2022-12-29T08:27:20;21.30;55.90
64718;DHT22;62506;46.070;14.492;2022-12-29T08:29:45;21.30;55.90
64718;DHT22;62506;46.070;14.492;2022-12-29T08:32:11;21.30;56.00
64718;DHT22;62506;46.070;14.492;2022-12-29T08:34:37;21.30;55.80
64718;DHT22;62506;46.070;14.492;2022-12-29T08:37:02;21.30;55.60
64718;DHT22;62506;46.070;14.492;2022-12-29T08:39:31;21.30;55.80
64718;DHT22;62506;46.070;14.492;2022-12-29T08:41:56;21.30;55.80
64718;DHT22;62506;46.070;14.492;2022-12-29T08:44:22;21.30;55.70
64718;DHT22;62506;46.070;14.492;2022-12-29T08:46:47;21.30;55.90
64718;DHT22;62506;46.070;14.492;2022-12-29T08:49:13;21.30;55.70
64718;DHT22;62506;46.070;14.492;2022-12-29T08:51:38;21.30;55.50
64718;DHT22;62506;46.070;14.492;2022-12-29T08:54:04;21.30;55.60
64718;DHT22;62506;46.070;14.492;2022-12-29T08:56:30;21.30;55.70
64718;DHT22;62506;46.070;14.492;2022-12-29T08:58:55;21.30;55.60
64718;DHT22;62506;46.070;14.492;2022-12-29T09:01:21;21.30;55.60
64718;DHT22;62506;46.070;14.492;2022-12-29T09:03:46;21.30;55.70
64718;DHT22;62506;46.070;14.492;2022-12-29T09:06:12;21.30;55.60
64718;DHT22;62506;46.070;14.492;2022-12-29T09:08:37;21.30;55.60
64718;DHT22;62506;46.070;14.492;2022-12-29T09:11:11;21.30;55.90
64718;DHT22;62506;46.070;14.492;2022-12-29T09:13:37;21.30;54.90
64718;DHT22;62506;46.070;14.492;2022-12-29T09:16:03;21.20;55.40
64718;DHT22;62506;46.070;14.492;2022-12-29T09:18:29;21.30;55.50
64718;DHT22;62506;46.070;14.492;2022-12-29T09:20:58;21.30;55.50
64718;DHT22;62506;46.070;14.492;2022-12-29T09:23:24;21.30;55.50
64718;DHT22;62506;46.070;14.492;2022-12-29T09:25:49;21.30;55.30
64718;DHT22;62506;46.070;14.492;2022-12-29T09:28:15;21.30;55.30
64718;DHT22;62506;46.070;14.492;2022-12-29T09:30:41;21.30;55.40
64718;DHT22;62506;46.070;14.492;2022-12-29T09:33:06;21.30;55.40
64718;DHT22;62506;46.070;14.492;2022-12-29T09:35:32;21.20;55.40
64718;DHT22;62506;46.070;14.492;2022-12-29T09:37:57;21.30;55.40
64718;DHT22;62506;46.070;14.492;2022-12-29T09:40:30;21.20;55.30
64718;DHT22;62506;46.070;14.492;2022-12-29T09:45:27;21.20;55.10
64718;DHT22;62506;46.070;14.492;2022-12-29T09:47:55;21.20;55.00
64718;DHT22;62506;46.070;14.492;2022-12-29T09:55:19;21.20;55.20
64718;DHT22;62506;46.070;14.492;2022-12-29T10:00:16;21.30;55.30
64718;DHT22;62506;46.070;14.492;2022-12-29T10:02:46;21.20;55.40
64718;DHT22;62506;46.070;14.492;2022-12-29T10:05:36;21.20;55.30
64718;DHT22;62506;46.070;14.492;2022-12-29T10:15:46;21.20;52.10
64718;DHT22;62506;46.070;14.492;2022-12-29T10:20:58;21.10;53.30
64718;DHT22;62506;46.070;14.492;2022-12-29T10:23:27;21.10;54.00
64718;DHT22;62506;46.070;14.492;2022-12-29T10:25:55;21.10;53.70
64718;DHT22;62506;46.070;14.492;2022-12-29T10:28:22;21.10;54.40
64718;DHT22;62506;46.070;14.492;2022-12-29T10:30:49;21.10;54.80
64718;DHT22;62506;46.070;14.492;2022-12-29T10:33:27;21.10;55.00
64718;DHT22;62506;46.070;14.492;2022-12-29T10:35:53;21.10;55.10
64718;DHT22;62506;46.070;14.492;2022-12-29T10:40:49;21.10;55.40
64718;DHT22;62506;46.070;14.492;2022-12-29T10:45:56;21.10;55.20
64718;DHT22;62506;46.070;14.492;2022-12-29T10:48:24;21.10;55.30
64718;DHT22;62506;46.070;14.492;2022-12-29T10:50:50;21.10;55.90
64718;DHT22;62506;46.070;14.492;2022-12-29T10:53:19;21.10;55.30
64718;DHT22;62506;46.070;14.492;2022-12-29T10:55:46;21.10;55.40
64718;DHT22;62506;46.070;14.492;2022-12-29T10:58:12;21.00;55.30
64718;DHT22;62506;46.070;14.492;2022-12-29T11:00:38;21.00;55.40
64718;DHT22;62506;46.070;14.492;2022-12-29T11:05:38;21.00;55.60
64718;DHT22;62506;46.070;14.492;2022-12-29T11:08:10;21.10;55.90
64718;DHT22;62506;46.070;14.492;2022-12-29T11:10:40;21.10;55.60
64718;DHT22;62506;46.070;14.492;2022-12-29T11:13:11;21.10;55.70
64718;DHT22;62506;46.070;14.492;2022-12-29T11:15:40;21.10;56.00
64718;DHT22;62506;46.070;14.492;2022-12-29T11:18:16;21.10;55.60
64718;DHT22;62506;46.070;14.492;2022-12-29T11:20:42;21.10;55.50
64718;DHT22;62506;46.070;14.492;2022-12-29T11:25:50;21.10;55.60
64718;DHT22;62506;46.070;14.492;2022-12-29T11:28:30;21.10;55.60
64718;DHT22;62506;46.070;14.492;2022-12-29T11:31:00;21.10;55.60
64718;DHT22;62506;46.070;14.492;2022-12-29T11:33:30;21.10;55.60
64718;DHT22;62506;46.070;14.492;2022-12-29T11:36:01;21.10;55.50
64718;DHT22;62506;46.070;14.492;2022-12-29T11:38:33;21.10;55.40
64718;DHT22;62506;46.070;14.492;2022-12-29T11:40:59;21.10;55.40
64718;DHT22;62506;46.070;14.492;2022-12-29T11:45:54;21.10;55.40
64718;DHT22;62506;46.070;14.492;2022-12-29T11:48:21;21.10;55.40
64718;DHT22;62506;46.070;14.492;2022-12-29T11:50:51;21.10;55.50
64718;DHT22;62506;46.070;14.492;2022-12-29T11:55:53;21.10;55.60
64718;DHT22;62506;46.070;14.492;2022-12-29T11:58:19;21.10;55.50
64718;DHT22;62506;46.070;14.492;2022-12-29T12:00:45;21.10;55.60
64718;DHT22;62506;46.070;14.492;2022-12-29T12:05:57;21.00;55.60
64718;DHT22;62506;46.070;14.492;2022-12-29T12:16:15;21.00;55.70
64718;DHT22;62506;46.070;14.492;2022-12-29T12:21:13;21.00;55.90
64718;DHT22;62506;46.070;14.492;2022-12-29T12:23:47;21.00;55.70
64718;DHT22;62506;46.070;14.492;2022-12-29T12:26:21;21.10;55.90
64718;DHT22;62506;46.070;14.492;2022-12-29T12:28:51;21.00;55.50
64718;DHT22;62506;46.070;14.492;2022-12-29T12:31:35;21.00;55.50
64718;DHT22;62506;46.070;14.492;2022-12-29T12:34:05;21.00;55.70
64718;DHT22;62506;46.070;14.492;2022-12-29T12:56:51;21.10;55.50
64718;DHT22;62506;46.070;14.492;2022-12-29T13:05:00;21.10;55.80
64718;DHT22;62506;46.070;14.492;2022-12-29T13:07:34;21.10;55.60
64718;DHT22;62506;46.070;14.492;2022-12-29T13:15:08;21.10;55.70
64718;DHT22;62506;46.070;14.492;2022-12-29T13:22:58;21.10;55.70
64718;DHT22;62506;46.070;14.492;2022-12-29T13:30:30;21.10;55.70
64718;DHT22;62506;46.070;14.492;2022-12-29T13:40:34;21.10;55.70
64718;DHT22;62506;46.070;14.492;2022-12-29T13:43:01;21.10;55.60
64718;DHT22;62506;46.070;14.492;2022-12-29T13:45:28;21.10;55.70
64718;DHT22;62506;46.070;14.492;2022-12-29T13:47:57;21.10;55.80
64718;DHT22;62506;46.070;14.492;2022-12-29T13:50:25;21.10;55.80
64718;DHT22;62506;46.070;14.492;2022-12-29T13:53:40;21.10;55.80
64718;DHT22;62506;46.070;14.492;2022-12-29T13:59:11;21.10;56.30
64718;DHT22;62506;46.070;14.492;2022-12-29T14:01:12;21.10;55.80
64718;DHT22;62506;46.070;14.492;2022-12-29T14:03:53;21.10;55.70
64718;DHT22;62506;46.070;14.492;2022-12-29T14:06:26;21.10;55.80
64718;DHT22;62506;46.070;14.492;2022-12-29T14:08:54;21.10;55.70
64718;DHT22;62506;46.070;14.492;2022-12-29T14:11:21;21.10;55.90
64718;DHT22;62506;46.070;14.492;2022-12-29T14:13:47;21.10;55.80
64718;DHT22;62506;46.070;14.492;2022-12-29T14:18:53;21.10;55.90
64718;DHT22;62506;46.070;14.492;2022-12-29T14:21:23;21.10;55.90
64718;DHT22;62506;46.070;14.492;2022-12-29T14:23:53;21.10;55.80
64718;DHT22;62506;46.070;14.492;2022-12-29T14:28:53;21.00;55.90
64718;DHT22;62506;46.070;14.492;2022-12-29T14:36:39;21.10;56.20
64718;DHT22;62506;46.070;14.492;2022-12-29T14:39:25;21.20;55.70
64718;DHT22;62506;46.070;14.492;2022-12-29T14:44:49;21.40;55.50
64718;DHT22;62506;46.070;14.492;2022-12-29T14:47:18;21.40;55.50
64718;DHT22;62506;46.070;14.492;2022-12-29T14:49:45;21.40;55.60
64718;DHT22;62506;46.070;14.492;2022-12-29T14:52:30;21.50;55.60
64718;DHT22;62506;46.070;14.492;2022-12-29T14:54:56;21.50;55.50
64718;DHT22;62506;46.070;14.492;2022-12-29T14:59:56;21.60;55.60
64718;DHT22;62506;46.070;14.492;2022-12-29T15:02:24;21.60;55.40
64718;DHT22;62506;46.070;14.492;2022-12-29T15:04:51;21.60;55.50
64718;DHT22;62506;46.070;14.492;2022-12-29T15:07:19;21.70;55.60
64718;DHT22;62506;46.070;14.492;2022-12-29T15:09:46;21.70;55.70
64718;DHT22;62506;46.070;14.492;2022-12-29T15:14:56;21.70;55.30
64718;DHT22;62506;46.070;14.492;2022-12-29T15:17:25;21.70;55.20
64718;DHT22;62506;46.070;14.492;2022-12-29T15:19:52;21.70;55.10
64718;DHT22;62506;46.070;14.492;2022-12-29T15:22:17;21.70;55.20
64718;DHT22;62506;46.070;14.492;2022-12-29T15:24:43;21.70;55.50
64718;DHT22;62506;46.070;14.492;2022-12-29T15:27:12;21.70;55.40
64718;DHT22;62506;46.070;14.492;2022-12-29T15:29:46;21.70;55.50
64718;DHT22;62506;46.070;14.492;2022-12-29T15:32:53;21.70;55.70
64718;DHT22;62506;46.070;14.492;2022-12-29T15:35:29;21.70;56.20
64718;DHT22;62506;46.070;14.492;2022-12-29T15:37:55;21.70;56.30
64718;DHT22;62506;46.070;14.492;2022-12-29T15:40:22;21.70;56.00
64718;DHT22;62506;46.070;14.492;2022-12-29T15:43:10;21.70;55.80
64718;DHT22;62506;46.070;14.492;2022-12-29T15:45:37;21.60;56.00
64718;DHT22;62506;46.070;14.492;2022-12-29T15:48:07;21.60;55.90
64718;DHT22;62506;46.070;14.492;2022-12-29T15:50:38;21.60;55.80
64718;DHT22;62506;46.070;14.492;2022-12-29T15:53:09;21.60;55.90
64718;DHT22;62506;46.070;14.492;2022-12-29T15:55:37;21.60;55.90
64718;DHT22;62506;46.070;14.492;2022-12-29T15:58:04;21.60;55.90
64718;DHT22;62506;46.070;14.492;2022-12-29T16:55:04;22.00;55.60
64718;DHT22;62506;46.070;14.492;2022-12-29T16:57:50;22.00;55.60
64718;DHT22;62506;46.070;14.492;2022-12-29T17:31:44;22.20;57.50
64718;DHT22;62506;46.070;14.492;2022-12-29T17:34:10;22.20;57.60
64718;DHT22;62506;46.070;14.492;2022-12-29T17:36:36;22.20;57.20
64718;DHT22;62506;46.070;14.492;2022-12-29T17:39:02;22.20;57.30
64718;DHT22;62506;46.070;14.492;2022-12-29T18:17:40;22.20;56.80
64718;DHT22;62506;46.070;14.492;2022-12-29T18:20:06;22.10;57.00
64718;DHT22;62506;46.070;14.492;2022-12-29T19:24:42;22.30;55.90
64718;DHT22;62506;46.070;14.492;2022-12-29T19:27:07;22.30;56.20
64718;DHT22;62506;46.070;14.492;2022-12-29T19:29:33;22.30;56.10
64718;DHT22;62506;46.070;14.492;2022-12-29T19:32:00;22.30;56.10
64718;DHT22;62506;46.070;14.492;2022-12-29T19:42:40;22.40;56.00
64718;DHT22;62506;46.070;14.492;2022-12-29T19:45:23;22.30;56.00
64718;DHT22;62506;46.070;14.492;2022-12-29T19:48:47;22.30;56.10
64718;DHT22;62506;46.070;14.492;2022-12-29T19:59:23;22.30;55.70
64718;DHT22;62506;46.070;14.492;2022-12-29T20:02:08;22.20;56.00
64718;DHT22;62506;46.070;14.492;2022-12-29T20:04:57;22.30;56.00
64718;DHT22;62506;46.070;14.492;2022-12-29T20:07:23;22.30;56.40
64718;DHT22;62506;46.070;14.492;2022-12-29T20:09:49;22.40;56.50
64718;DHT22;62506;46.070;14.492;2022-12-29T20:12:15;22.40;56.40
64718;DHT22;62506;46.070;14.492;2022-12-29T20:14:41;22.30;56.20
64718;DHT22;62506;46.070;14.492;2022-12-29T20:17:10;22.30;56.40
64718;DHT22;62506;46.070;14.492;2022-12-29T20:19:36;22.30;56.40
64718;DHT22;62506;46.070;14.492;2022-12-29T20:22:04;22.30;56.50
64718;DHT22;62506;46.070;14.492;2022-12-29T20:24:57;22.30;56.60
64718;DHT22;62506;46.070;14.492;2022-12-29T20:27:23;22.30;56.60
64718;DHT22;62506;46.070;14.492;2022-12-29T20:29:49;22.20;56.10
64718;DHT22;62506;46.070;14.492;2022-12-29T20:32:32;22.20;56.40
64718;DHT22;62506;46.070;14.492;2022-12-29T20:35:00;22.20;56.60
64718;DHT22;62506;46.070;14.492;2022-12-29T20:37:26;22.10;56.60
64718;DHT22;62506;46.070;14.492;2022-12-29T20:39:51;22.10;56.70
64718;DHT22;62506;46.070;14.492;2022-12-29T20:42:17;22.10;56.70
64718;DHT22;62506;46.070;14.492;2022-12-29T20:44:42;22.10;56.70
64718;DHT22;62506;46.070;14.492;2022-12-29T20:47:08;22.00;57.50
64718;DHT22;62506;46.070;14.492;2022-12-29T20:49:34;22.00;56.80
64718;DHT22;62506;46.070;14.492;2022-12-29T20:52:00;22.00;56.90
64718;DHT22;62506;46.070;14.492;2022-12-29T20:54:26;22.00;56.90
64718;DHT22;62506;46.070;14.492;2022-12-29T20:56:51;21.90;56.80
64718;DHT22;62506;46.070;14.492;2022-12-29T20:59:17;21.90;56.90
64718;DHT22;62506;46.070;14.492;2022-12-29T21:01:43;21.90;56.90
64718;DHT22;62506;46.070;14.492;2022-12-29T21:04:09;21.90;57.00
64718;DHT22;62506;46.070;14.492;2022-12-29T21:06:34;21.90;57.00
64718;DHT22;62506;46.070;14.492;2022-12-29T21:09:01;21.90;57.10
64718;DHT22;62506;46.070;14.492;2022-12-29T21:11:27;21.80;57.00
64718;DHT22;62506;46.070;14.492;2022-12-29T21:13:53;21.80;57.10